Amenia, North Dakota
Current Conditions -  °F | °C
As of 8:53 AM on Thursday 30 Oct 2014 (Local Time) from KFAR Reporting Station
Overcast Overcast  
Wind Chill: 32°   Ceiling: 1200
Heat Index: 40°   Visibility: 7mi
Dew Point: 37°   Wind: 15mph
Humidity: 89%   Direction: 10°N
Pressure: 30.14"   Gusts: NA
Location:  47°N, 97.22°W
Report Text: KFAR 301353Z 01013KT 7SM SCT004 BKN012 OVC029 04/03 A3014 RMK AO2 RAE46 SLP215 P0001 T00440028
Loading
Personal Weather Stations






























Interactive Weather Map
Tropical Storm Tracking
New forecast layout! Learn more

10-Day Weather Forecast

Advertisements
Track Severe Weather on mobile